createdAt,value
2023-03-05T00:00:38.784Z,21.21
2023-03-05T00:05:59.983Z,20.37
2023-03-05T00:11:06.784Z,23.14
2023-03-05T00:16:14.472Z,34.31
2023-03-05T00:21:20.803Z,44.60
2023-03-05T00:26:25.773Z,20.26
2023-03-05T00:31:34.359Z,20.21
2023-03-05T00:36:40.627Z,29.13
2023-03-05T00:41:44.454Z,20.23
2023-03-05T00:46:50.199Z,23.83
2023-03-05T00:57:21.808Z,49.28
2023-03-05T01:02:29.012Z,25.52
2023-03-05T01:07:32.525Z,24.29
2023-03-05T01:12:38.146Z,23.96
2023-03-05T01:17:42.910Z,23.68
2023-03-05T01:22:46.348Z,23.33
2023-03-05T01:27:52.770Z,22.48
2023-03-05T01:32:59.990Z,22.04
2023-03-05T01:38:05.590Z,22.81
2023-03-05T01:43:23.247Z,25.24
2023-03-05T01:48:30.272Z,24.57
2023-03-05T01:53:34.141Z,24.84
2023-03-05T01:58:40.702Z,25.79
2023-03-05T02:03:46.489Z,21.25
2023-03-05T02:08:49.959Z,25.25
2023-03-05T02:13:53.795Z,24.32
2023-03-05T02:18:58.653Z,25.17
2023-03-05T02:24:07.069Z,24.63
2023-03-05T02:29:12.871Z,24.72
2023-03-05T02:34:20.986Z,24.93
2023-03-05T02:39:27.983Z,24.13
2023-03-05T02:44:31.741Z,26.12
2023-03-05T02:49:35.748Z,23.97
2023-03-05T02:54:43.768Z,24.50
2023-03-05T02:59:52.613Z,22.09
2023-03-05T03:04:56.325Z,21.74
2023-03-05T03:10:01.178Z,20.28
2023-03-05T03:15:08.427Z,22.93
2023-03-05T03:20:17.283Z,24.28
2023-03-05T03:25:26.801Z,25.26
2023-03-05T03:30:32.518Z,24.42
2023-03-05T03:35:36.033Z,23.43
2023-03-05T03:40:41.243Z,26.38
2023-03-05T03:45:47.111Z,25.59
2023-03-05T03:50:55.296Z,23.32
2023-03-05T03:56:02.512Z,25.84
2023-03-05T04:01:06.191Z,25.60
2023-03-05T04:06:12.482Z,28.32
2023-03-05T04:11:19.396Z,24.81
2023-03-05T04:16:23.237Z,25.85
2023-03-05T04:21:26.877Z,25.39
2023-03-05T04:26:34.210Z,26.36
2023-03-05T04:31:37.752Z,21.88
2023-03-05T04:36:41.277Z,21.08
2023-03-05T04:41:46.036Z,21.74
2023-03-05T04:46:49.661Z,23.28
2023-03-05T04:51:53.092Z,38.54
2023-03-05T04:57:00.067Z,25.96
2023-03-05T05:02:03.619Z,24.56
2023-03-05T05:07:08.262Z,24.30
2023-03-05T05:12:15.463Z,27.75
2023-03-05T05:17:21.371Z,28.11
2023-03-05T05:22:24.871Z,23.87
2023-03-05T05:27:29.801Z,28.44
2023-03-05T05:32:33.411Z,25.02
2023-03-05T05:37:36.996Z,24.45
2023-03-05T05:42:46.511Z,21.37
2023-03-05T05:47:55.356Z,38.26
2023-03-05T05:52:58.794Z,22.66
2023-03-05T05:58:03.611Z,21.41
2023-03-05T06:03:07.918Z,20.41
2023-03-05T06:08:11.517Z,18.86
2023-03-05T06:13:16.351Z,19.47
2023-03-05T06:18:19.801Z,21.98
2023-03-05T06:23:23.389Z,24.44
2023-03-05T06:28:28.523Z,22.49
2023-03-05T06:33:34.889Z,22.12
2023-03-05T06:38:41.602Z,35.40
2023-03-05T06:43:47.889Z,23.02
2023-03-05T06:48:52.131Z,22.44
2023-03-05T06:53:57.372Z,26.82
2023-03-05T06:59:05.232Z,23.68
2023-03-05T07:04:09.054Z,24.00
2023-03-05T07:09:15.956Z,29.32
2023-03-05T07:14:20.726Z,15.75
2023-03-05T07:19:24.118Z,18.26
2023-03-05T07:24:29.980Z,22.21
2023-03-05T07:29:37.375Z,22.47
2023-03-05T07:34:45.544Z,21.52
2023-03-05T07:39:49.111Z,24.28
2023-03-05T07:44:54.005Z,22.95
2023-03-05T07:49:59.893Z,23.18
2023-03-05T07:55:06.305Z,21.16
2023-03-05T08:00:16.626Z,22.57
2023-03-05T08:05:20.280Z,24.06
2023-03-05T08:10:26.578Z,22.72
2023-03-05T08:15:31.734Z,22.52
2023-03-05T08:20:36.481Z,20.55
2023-03-05T08:25:40.250Z,22.64
2023-03-05T08:30:48.274Z,20.85
2023-03-05T08:35:51.900Z,21.63
2023-03-05T08:40:57.789Z,23.68
2023-03-05T08:46:05.222Z,23.72
2023-03-05T08:51:09.385Z,21.29
2023-03-05T08:56:15.528Z,22.31
2023-03-05T09:01:24.068Z,24.10
2023-03-05T09:06:28.578Z,24.04
2023-03-05T09:11:36.057Z,24.63
2023-03-05T09:16:43.164Z,22.91
2023-03-05T09:21:49.076Z,25.43
2023-03-05T09:26:52.688Z,41.50
2023-03-05T09:32:02.981Z,24.42
2023-03-05T09:37:06.613Z,29.07
2023-03-05T09:42:30.282Z,25.70
2023-03-05T09:47:46.340Z,27.81
2023-03-05T09:52:51.624Z,32.02
2023-03-05T09:58:04.087Z,27.66
2023-03-05T10:03:17.646Z,1665.89
2023-03-05T10:08:24.236Z,5221.80
2023-03-05T10:13:31.445Z,7986.15
2023-03-05T10:18:43.460Z,4257.55
2023-03-05T10:24:01.667Z,5527.17
2023-03-05T10:29:16.514Z,6105.74
2023-03-05T10:34:45.090Z,3066.30
2023-03-05T10:39:58.905Z,1031.16
2023-03-05T10:45:07.079Z,84.50
2023-03-05T10:50:17.082Z,130.04
2023-03-05T10:55:23.675Z,238.75
2023-03-05T11:00:30.372Z,539.80
2023-03-05T11:05:46.381Z,531.20
2023-03-05T11:11:04.076Z,413.54
2023-03-05T11:16:19.933Z,75.08
2023-03-05T11:21:27.967Z,367.61
2023-03-05T11:26:31.812Z,2287.89
2023-03-05T11:31:35.637Z,7180.98
2023-03-05T11:36:44.408Z,18364.80
2023-03-05T11:41:52.537Z,31938.41
2023-03-05T11:47:05.114Z,28367.38
2023-03-05T11:52:15.363Z,67315.80
2023-03-05T11:57:24.104Z,62143.14
2023-03-05T12:02:29.259Z,71195.71
2023-03-05T12:07:36.860Z,83578.04
2023-03-05T12:12:49.564Z,80534.27
2023-03-05T12:18:03.157Z,73498.02
2023-03-05T12:23:14.276Z,78496.02
2023-03-05T12:28:18.936Z,78823.02
2023-03-05T12:33:33.653Z,81971.23
2023-03-05T12:38:39.322Z,80829.48
2023-03-05T12:43:43.339Z,79793.75
2023-03-05T12:48:46.945Z,82324.07
2023-03-05T12:53:54.297Z,85077.83
2023-03-05T12:59:01.200Z,91770.05
2023-03-05T13:04:10.850Z,94761.12
2023-03-05T13:09:19.486Z,95278.05
2023-03-05T13:14:35.942Z,85791.38
2023-03-05T13:19:43.024Z,84749.82
2023-03-05T13:24:49.929Z,79665.90
2023-03-05T13:29:55.147Z,76865.14
2023-03-05T13:35:01.878Z,74177.70
2023-03-05T13:40:19.999Z,73296.66
2023-03-05T13:45:26.166Z,74443.17
2023-03-05T13:50:34.172Z,71323.14
2023-03-05T13:55:39.906Z,69700.38
2023-03-05T14:00:43.797Z,64661.85
2023-03-05T14:05:47.565Z,69325.99
2023-03-05T14:10:55.711Z,67909.24
2023-03-05T14:16:06.364Z,63818.75
2023-03-05T14:21:11.296Z,61223.10
2023-03-05T14:26:29.495Z,60479.20
2023-03-05T14:31:38.082Z,57373.07
2023-03-05T14:36:48.648Z,56177.49
2023-03-05T14:41:56.535Z,71802.85
2023-03-05T14:47:02.391Z,73559.55
2023-03-05T14:52:06.782Z,70046.73
2023-03-05T14:57:16.785Z,71384.66
2023-03-05T15:02:25.185Z,68225.53
2023-03-05T15:07:31.946Z,66869.34
2023-03-05T15:12:39.035Z,64718.13
2023-03-05T15:17:44.122Z,59389.75
2023-03-05T15:22:47.723Z,55058.21
2023-03-05T15:27:52.540Z,56271.26
2023-03-05T15:32:57.576Z,57326.36
2023-03-05T15:38:03.589Z,59260.78
2023-03-05T15:43:08.379Z,61161.16
2023-03-05T15:48:16.733Z,54773.95
2023-03-05T15:53:21.615Z,54111.07
2023-03-05T15:58:26.444Z,58591.32
2023-03-05T16:03:29.881Z,53025.62
2023-03-05T16:08:36.269Z,54825.36
2023-03-05T16:13:43.168Z,58963.03
2023-03-05T16:18:48.490Z,60437.37
2023-03-05T16:23:51.916Z,55846.82
2023-03-05T16:28:56.789Z,54646.41
2023-03-05T16:34:05.337Z,54550.66
2023-03-05T16:39:08.857Z,54642.13
2023-03-05T16:44:14.099Z,54146.72
2023-03-05T16:49:20.229Z,56228.22
2023-03-05T16:54:23.695Z,55565.99
2023-03-05T16:59:28.722Z,46464.10
2023-03-05T17:04:32.624Z,53356.46
2023-03-05T17:09:38.530Z,50380.82
2023-03-05T17:14:43.389Z,52093.80
2023-03-05T17:19:46.893Z,52041.35
2023-03-05T17:24:51.001Z,53294.40
2023-03-05T17:29:56.083Z,51777.56
2023-03-05T17:34:59.494Z,52489.05
2023-03-05T17:40:05.566Z,52331.61
2023-03-05T17:45:10.872Z,53104.97
2023-03-05T17:50:15.320Z,53009.64
2023-03-05T17:55:18.822Z,54038.95
2023-03-05T18:00:24.454Z,55160.81
2023-03-05T18:05:28.546Z,54477.00
2023-03-05T18:10:33.118Z,55505.95
2023-03-05T18:15:41.753Z,55667.28
2023-03-05T18:20:48.786Z,54780.09
2023-03-05T18:25:52.309Z,55184.82
2023-03-05T18:30:57.117Z,55338.99
2023-03-05T18:36:00.841Z,54589.38
2023-03-05T18:41:04.715Z,52966.56
2023-03-05T18:46:11.951Z,53861.56
2023-03-05T18:51:17.174Z,52772.47
2023-03-05T18:56:20.549Z,54102.93
2023-03-05T19:01:25.351Z,52939.96
2023-03-05T19:06:28.917Z,53869.73
2023-03-05T19:11:32.494Z,52616.68
2023-03-05T19:16:43.505Z,54507.71
2023-03-05T19:21:48.857Z,55526.74
2023-03-05T19:26:55.420Z,55590.16
2023-03-05T19:32:00.399Z,54282.13
2023-03-05T19:37:04.105Z,52366.10
2023-03-05T19:42:08.176Z,50015.32
2023-03-05T19:47:15.107Z,46384.95
2023-03-05T19:52:21.578Z,47517.70
2023-03-05T19:57:25.049Z,47400.96
2023-03-05T20:02:29.874Z,47486.87
2023-03-05T20:07:33.392Z,44875.17
2023-03-05T20:12:39.266Z,46770.75
2023-03-05T20:17:45.844Z,47690.03
2023-03-05T20:22:49.278Z,46024.38
2023-03-05T20:27:53.108Z,46294.98
2023-03-05T20:32:58.042Z,48017.60
2023-03-05T20:38:20.682Z,47318.38
2023-03-05T20:43:28.026Z,47927.31
2023-03-05T20:48:34.532Z,48336.06
2023-03-05T20:53:37.950Z,43795.73
2023-03-05T20:58:41.403Z,44832.26
2023-03-05T21:03:48.638Z,46277.74
2023-03-05T21:08:54.467Z,46256.18
2023-03-05T21:13:58.133Z,43339.04
2023-03-05T21:19:05.081Z,46558.09
2023-03-05T21:24:08.842Z,39942.23
2023-03-05T21:29:14.760Z,28863.34
2023-03-05T21:34:21.680Z,23364.69
2023-03-05T21:39:25.115Z,5491.84
2023-03-05T21:44:28.576Z,2046.24
2023-03-05T21:49:33.545Z,1576.37
2023-03-05T21:54:37.341Z,7119.25
2023-03-05T21:59:41.774Z,37129.36
2023-03-05T22:04:47.605Z,44793.30
2023-03-05T22:09:55.398Z,46363.80
2023-03-05T22:14:59.031Z,45931.07
2023-03-05T22:20:04.004Z,46216.96
2023-03-05T22:25:10.174Z,46143.55
2023-03-05T22:30:14.183Z,44108.01
2023-03-05T22:35:19.215Z,42848.19
2023-03-05T22:40:23.708Z,27803.90
2023-03-05T22:45:29.634Z,31319.32
2023-03-05T22:50:34.445Z,30037.51
2023-03-05T22:55:39.172Z,40984.01
2023-03-05T23:00:42.757Z,41578.09
2023-03-05T23:05:47.575Z,42562.88
2023-03-05T23:10:53.092Z,42399.79
2023-03-05T23:15:56.652Z,43129.45
2023-03-05T23:21:03.820Z,43160.31
2023-03-05T23:26:09.624Z,41314.82
2023-03-05T23:31:13.060Z,42913.38
2023-03-05T23:36:19.962Z,43703.41
2023-03-05T23:41:26.381Z,45883.94
2023-03-05T23:46:30.686Z,45984.31
2023-03-05T23:51:35.456Z,47193.82
2023-03-05T23:56:41.029Z,46905.50
